Time;durP1;ratioP1;P1;durP2;ratioP2;P2;SDS_P1;SDS_P2;PMS_P1;PMS_P2;Temp;Humidity;BMP_temperature;BMP_pressure;BME280_temperature;BME280_humidity;BME280_pressure;Samples;Min_cycle;Max_cycle;Signal;HPM_P1;HPM_P2
2021/06/08 00:02:26;;;;;;;58.15;53.05;;;;;;;13.82;100.00;101080.53;5018623;28;20046;-87
2021/06/08 00:04:52;;;;;;;48.33;44.13;;;;;;;14.01;100.00;101081.41;5009763;28;20049;-86
2021/06/08 00:07:19;;;;;;;48.00;43.83;;;;;;;13.96;100.00;101078.56;5004553;28;20064;-87
2021/06/08 00:09:46;;;;;;;46.72;42.65;;;;;;;13.86;100.00;101080.94;5009054;28;20053;-87
2021/06/08 00:12:13;;;;;;;50.42;45.92;;;;;;;13.97;100.00;101080.19;5014214;28;20046;-88
2021/06/08 00:14:39;;;;;;;46.40;42.42;;;;;;;13.95;100.00;101080.44;5015311;28;20192;-87
2021/06/08 00:17:05;;;;;;;47.63;43.45;;;;;;;13.94;100.00;101080.63;5010476;28;20085;-88
2021/06/08 00:19:32;;;;;;;46.80;42.70;;;;;;;14.03;100.00;101071.31;5014527;28;20050;-87
2021/06/08 00:21:58;;;;;;;45.15;41.05;;;;;;;14.03;100.00;101071.31;5014621;28;20056;-88
2021/06/08 00:24:24;;;;;;;48.75;44.33;;;;;;;13.82;100.00;101075.19;5001523;28;20038;-87
2021/06/08 00:26:52;;;;;;;51.97;47.47;;;;;;;13.59;100.00;101081.13;5011067;28;20415;-87
2021/06/08 00:29:19;;;;;;;48.92;44.65;;;;;;;13.60;100.00;101071.28;5004083;28;20046;-87
2021/06/08 00:31:45;;;;;;;54.75;50.08;;;;;;;13.63;100.00;101074.31;5016176;28;20041;-89
2021/06/08 00:34:11;;;;;;;52.75;47.92;;;;;;;13.70;100.00;101069.72;5008126;28;20057;-89
2021/06/08 00:36:38;;;;;;;50.10;45.80;;;;;;;13.70;100.00;101072.41;5008474;28;20050;-88
2021/06/08 00:39:05;;;;;;;47.25;43.17;;;;;;;13.70;100.00;101069.72;5010806;28;20038;-87
2021/06/08 00:41:33;;;;;;;49.25;44.95;;;;;;;13.73;100.00;101065.81;5015235;28;20041;-87
2021/06/08 00:44:02;;;;;;;51.13;46.45;;;;;;;13.72;100.00;101065.00;5007283;28;20042;-87
2021/06/08 00:46:29;;;;;;;47.05;42.80;;;;;;;13.67;100.00;101066.69;4998210;28;20053;-87
2021/06/08 00:48:55;;;;;;;50.17;45.72;;;;;;;13.66;100.00;101059.72;5003544;28;20050;-85
2021/06/08 00:51:21;;;;;;;51.45;47.03;;;;;;;13.41;100.00;101062.38;5012181;28;20461;-88
2021/06/08 00:53:48;;;;;;;50.53;45.92;;;;;;;13.56;100.00;101059.41;5014166;28;20069;-87
2021/06/08 00:56:14;;;;;;;48.33;43.97;;;;;;;13.62;100.00;101058.53;5008713;28;20412;-88
2021/06/08 00:58:41;;;;;;;51.80;47.20;;;;;;;13.54;100.00;101056.13;5005734;28;20053;-87
2021/06/08 01:01:08;;;;;;;46.58;42.53;;;;;;;13.56;100.00;101065.56;5003234;28;20145;-89
2021/06/08 01:03:35;;;;;;;47.85;43.58;;;;;;;13.47;100.00;101059.66;5018710;28;20049;-89
2021/06/08 01:06:01;;;;;;;50.17;45.67;;;;;;;13.42;100.00;101056.00;5010698;28;20042;-87
2021/06/08 01:08:27;;;;;;;44.83;40.80;;;;;;;13.46;100.00;101059.88;5012594;28;20045;-89
2021/06/08 01:10:54;;;;;;;46.47;42.28;;;;;;;13.33;100.00;101058.13;5014935;28;20056;-88
2021/06/08 01:13:21;;;;;;;54.35;47.97;;;;;;;13.28;100.00;101050.78;5011808;28;20053;-87
2021/06/08 01:15:48;;;;;;;53.85;49.15;;;;;;;13.33;100.00;101055.44;5007363;28;20041;-87
2021/06/08 01:18:16;;;;;;;44.58;40.67;;;;;;;13.44;100.00;101053.94;5002133;28;20507;-87
2021/06/08 01:20:42;;;;;;;45.05;40.75;;;;;;;13.48;100.00;101055.13;5009727;28;20041;-87
2021/06/08 01:23:10;;;;;;;45.97;41.78;;;;;;;13.02;100.00;101050.91;5008408;28;20545;-87
2021/06/08 01:25:37;;;;;;;48.63;44.25;;;;;;;13.14;100.00;101051.84;5009844;28;20099;-88
2021/06/08 01:28:03;;;;;;;43.10;39.30;;;;;;;13.22;100.00;101064.09;5007971;28;20060;-87
2021/06/08 01:30:30;;;;;;;48.88;44.28;;;;;;;13.11;100.00;101054.94;5007215;28;20038;-88
2021/06/08 01:32:57;;;;;;;56.78;51.88;;;;;;;13.21;100.00;101052.63;5016670;28;20057;-88
2021/06/08 01:35:24;;;;;;;51.25;46.78;;;;;;;13.22;100.00;101056.94;5005301;28;20049;-87
2021/06/08 01:37:50;;;;;;;61.63;56.53;;;;;;;13.30;100.00;101061.22;5010596;28;20045;-87
2021/06/08 01:40:19;;;;;;;55.47;50.40;;;;;;;13.37;100.00;101058.50;5006805;28;20049;-87
2021/06/08 01:42:48;;;;;;;51.60;46.65;;;;;;;13.24;100.00;101060.19;5017827;28;20041;-87
2021/06/08 01:45:15;;;;;;;57.47;52.60;;;;;;;13.40;100.00;101061.53;5005072;28;20050;-87
2021/06/08 01:47:41;;;;;;;48.22;44.15;;;;;;;13.39;100.00;101059.91;5021273;28;20435;-87
2021/06/08 01:50:09;;;;;;;54.33;50.05;;;;;;;13.25;100.00;101061.03;5013828;28;20491;-87
2021/06/08 01:52:40;;;;;;;53.05;48.45;;;;;;;13.09;100.00;101057.00;5008761;28;20124;-86
2021/06/08 01:55:14;;;;;;;49.75;45.53;;;;;;;13.21;100.00;101057.94;5012378;28;20046;-87
2021/06/08 01:57:46;;;;;;;48.80;44.72;;;;;;;13.20;100.00;101058.19;5011321;28;20050;-88
2021/06/08 02:02:52;;;;;;;42.65;38.88;;;;;;;13.34;100.00;101059.75;5009280;28;20057;-79
2021/06/08 02:05:27;;;;;;;40.75;37.30;;;;;;;13.20;100.00;101063.50;5012966;28;20050;-77
2021/06/08 02:07:59;;;;;;;40.35;36.95;;;;;;;13.01;100.00;101065.25;5012041;28;20064;-79
2021/06/08 02:10:47;;;;;;;43.28;38.97;;;;;;;12.84;100.00;101056.94;5007250;28;20474;-80
2021/06/08 02:13:23;;;;;;;44.15;40.15;;;;;;;12.93;100.00;101068.19;5013822;28;20119;-79
2021/06/08 02:15:55;;;;;;;44.30;40.15;;;;;;;12.98;100.00;101057.66;5016027;28;20096;-80
2021/06/08 02:18:25;;;;;;;45.47;41.47;;;;;;;13.03;100.00;101068.53;5012938;28;20046;-77
2021/06/08 02:20:52;;;;;;;53.17;48.92;;;;;;;13.07;100.00;101064.38;5005982;28;20297;-79
2021/06/08 02:23:22;;;;;;;58.72;53.67;;;;;;;12.96;100.00;101063.22;5013878;28;20061;-77
2021/06/08 02:25:51;;;;;;;47.38;43.28;;;;;;;12.78;100.00;101065.78;5015356;28;20120;-79
2021/06/08 02:28:25;;;;;;;49.63;45.17;;;;;;;12.83;100.00;101064.13;5016354;28;20061;-78
2021/06/08 02:30:54;;;;;;;49.25;44.85;;;;;;;12.80;100.00;101063.72;5011876;28;20038;-80
2021/06/08 02:33:21;;;;;;;53.70;49.28;;;;;;;12.80;100.00;101069.06;5008997;28;20105;-80
2021/06/08 02:35:48;;;;;;;52.88;48.28;;;;;;;12.82;100.00;101069.66;5012827;28;20115;-77
2021/06/08 02:38:16;;;;;;;51.47;47.42;;;;;;;12.82;100.00;101069.66;5011167;28;20418;-79
2021/06/08 02:40:43;;;;;;;51.15;47.10;;;;;;;12.46;100.00;101080.84;5010687;28;20088;-80
2021/06/08 02:43:12;;;;;;;54.95;50.45;;;;;;;12.51;100.00;101071.19;5012572;28;20054;-79
2021/06/08 02:45:41;;;;;;;53.63;49.13;;;;;;;12.72;100.00;101064.78;5012940;28;20145;-78
2021/06/08 02:48:09;;;;;;;44.35;40.85;;;;;;;12.60;100.00;101067.28;5011894;28;20042;-79
2021/06/08 02:50:36;;;;;;;51.60;47.35;;;;;;;12.70;100.00;101064.16;5012138;28;20085;-78
2021/06/08 02:53:03;;;;;;;49.15;45.17;;;;;;;12.29;100.00;101069.84;5003335;28;20127;-80
2021/06/08 02:55:31;;;;;;;56.60;52.20;;;;;;;12.55;100.00;101069.75;5008791;28;20061;-78
2021/06/08 02:58:00;;;;;;;47.38;43.72;;;;;;;12.73;100.00;101065.59;4999633;28;20057;-78
2021/06/08 03:00:27;;;;;;;55.78;51.28;;;;;;;12.87;100.00;101074.34;5004114;28;20402;-80
2021/06/08 03:02:59;;;;;;;47.17;43.10;;;;;;;12.78;100.00;101071.91;4999882;28;20438;-77
2021/06/08 03:05:29;;;;;;;59.55;55.05;;;;;;;12.57;100.00;101080.22;5007604;28;20141;-79
2021/06/08 03:07:59;;;;;;;47.60;43.63;;;;;;;12.97;100.00;101078.19;5009413;28;20042;-79
2021/06/08 03:10:29;;;;;;;45.10;41.30;;;;;;;13.10;100.00;101069.31;5004521;28;20070;-79
2021/06/08 03:12:57;;;;;;;45.47;41.55;;;;;;;13.14;100.00;101075.84;5005088;28;20058;-79
2021/06/08 03:15:28;;;;;;;49.83;45.53;;;;;;;13.16;100.00;101075.63;5006883;28;20046;-79
2021/06/08 03:17:56;;;;;;;44.13;40.63;;;;;;;13.20;100.00;101087.53;5003061;28;20050;-77
2021/06/08 03:20:28;;;;;;;48.42;44.45;;;;;;;13.22;100.00;101085.44;5002291;28;20053;-78
2021/06/08 03:22:56;;;;;;;;;;;;;;;13.24;100.00;101089.53;5004098;28;20050;-78
2021/06/08 03:25:24;;;;;;;46.63;42.70;;;;;;;13.43;100.00;101090.47;4999545;28;20381;-77
2021/06/08 03:27:54;;;;;;;48.45;44.55;;;;;;;13.37;100.00;101101.19;5001464;28;20050;-80
2021/06/08 03:30:21;;;;;;;47.30;43.20;;;;;;;13.45;100.00;101101.75;4999879;28;20046;-79
2021/06/08 03:32:50;;;;;;;47.55;43.45;;;;;;;13.43;100.00;101098.47;5000996;28;20435;-77
2021/06/08 03:35:19;;;;;;;46.53;41.88;;;;;;;13.66;100.00;101099.75;5003878;28;20083;-78
2021/06/08 03:37:46;;;;;;;45.08;41.50;;;;;;;13.65;100.00;101101.63;5008173;28;20108;-80
2021/06/08 03:40:14;;;;;;;44.22;40.53;;;;;;;13.79;100.00;101105.00;4997183;28;20050;-79
2021/06/08 03:42:42;;;;;;;46.05;41.83;;;;;;;13.91;100.00;101103.25;5002969;28;20537;-83
2021/06/08 03:45:12;;;;;;;44.78;41.08;;;;;;;13.98;100.00;101103.22;5008226;28;20054;-79
2021/06/08 03:47:40;;;;;;;44.97;41.08;;;;;;;13.85;100.00;101116.66;5023764;23;20111;-87
2021/06/08 03:50:08;;;;;;;43.80;40.05;;;;;;;14.03;100.00;101123.91;5029394;28;20041;-87
2021/06/08 03:52:36;;;;;;;55.35;50.25;;;;;;;14.21;100.00;101111.41;5026591;28;20049;-87
2021/06/08 03:55:03;;;;;;;44.22;40.55;;;;;;;14.19;100.00;101116.16;5027308;28;20042;-87
2021/06/08 03:57:48;;;;;;;46.15;42.53;;;;;;;14.35;100.00;101121.97;5017987;28;20460;-87
2021/06/08 04:00:18;;;;;;;51.78;47.83;;;;;;;14.30;100.00;101122.63;5029185;28;20457;-87
2021/06/08 04:02:45;;;;;;;48.35;43.95;;;;;;;14.31;100.00;101123.44;5026776;28;20065;-87
2021/06/08 04:05:14;;;;;;;46.38;42.45;;;;;;;14.43;100.00;101122.50;5023741;28;20046;-87
2021/06/08 04:07:44;;;;;;;45.22;41.47;;;;;;;14.61;100.00;101123.56;5026520;28;20049;-88
2021/06/08 04:10:17;;;;;;;56.15;51.80;;;;;;;14.67;100.00;101125.34;5017515;28;20100;-87
2021/06/08 04:12:43;;;;;;;53.72;49.63;;;;;;;14.86;100.00;101118.16;5019037;28;20056;-86
2021/06/08 04:15:11;;;;;;;46.10;42.42;;;;;;;14.83;100.00;101122.09;5025313;28;20068;-86
2021/06/08 04:17:38;;;;;;;45.03;41.30;;;;;;;14.85;100.00;101128.00;5017811;28;20069;-88
2021/06/08 04:20:05;;;;;;;55.28;51.20;;;;;;;14.98;100.00;101120.88;5023255;28;20092;-86
2021/06/08 04:22:33;;;;;;;54.33;50.13;;;;;;;15.14;100.00;101122.13;5023605;28;20483;-90
2021/06/08 04:25:03;;;;;;;55.75;51.58;;;;;;;15.17;100.00;101130.50;5027391;28;20046;-89
2021/06/08 04:27:30;;;;;;;52.53;47.53;;;;;;;15.08;100.00;101121.16;5024264;28;20049;-89
2021/06/08 04:29:57;;;;;;;51.85;48.00;;;;;;;15.30;100.00;101118.81;5016965;28;20053;-86
2021/06/08 04:32:24;;;;;;;49.33;45.35;;;;;;;15.50;100.00;101124.69;5027077;28;20103;-87
2021/06/08 04:34:52;;;;;;;45.92;42.17;;;;;;;15.53;100.00;101128.78;5026039;28;20091;-86
2021/06/08 04:37:19;;;;;;;46.95;42.85;;;;;;;15.63;100.00;101126.34;5016571;28;20045;-87
2021/06/08 04:39:46;;;;;;;51.63;47.40;;;;;;;15.70;100.00;101131.63;5023490;28;20045;-87
2021/06/08 04:42:15;;;;;;;46.58;42.78;;;;;;;15.77;100.00;101127.00;5024016;28;20049;-87
2021/06/08 04:44:43;;;;;;;49.78;45.60;;;;;;;15.87;100.00;101121.06;5017354;28;20052;-87
2021/06/08 04:47:10;;;;;;;48.78;44.92;;;;;;;15.94;100.00;101124.44;5022835;28;20519;-87
2021/06/08 04:49:36;;;;;;;49.85;45.85;;;;;;;16.05;100.00;101123.66;5026895;28;20564;-87
2021/06/08 04:52:06;;;;;;;48.72;44.90;;;;;;;16.11;100.00;101128.06;5020838;28;20052;-89
2021/06/08 04:54:33;;;;;;;49.50;45.25;;;;;;;16.09;100.00;101124.81;5022628;28;20042;-88
2021/06/08 04:57:00;;;;;;;49.22;45.03;;;;;;;16.29;100.00;101134.38;5025342;28;20057;-88
2021/06/08 04:59:34;;;;;;;49.22;45.25;;;;;;;16.24;100.00;101127.84;5027720;28;20061;-88
2021/06/08 05:02:05;;;;;;;45.67;42.08;;;;;;;16.31;100.00;101135.78;5018281;28;20046;-88
2021/06/08 05:04:33;;;;;;;47.80;43.80;;;;;;;16.45;100.00;101144.38;5027325;28;20038;-89
2021/06/08 05:07:04;;;;;;;48.80;44.50;;;;;;;16.76;100.00;101145.88;5019260;28;20049;-88
2021/06/08 05:09:34;;;;;;;47.83;44.00;;;;;;;16.86;100.00;101142.63;5017814;28;20065;-87
2021/06/08 05:12:05;;;;;;;49.47;45.03;;;;;;;16.84;100.00;101131.28;5026622;28;20041;-88
2021/06/08 05:14:33;;;;;;;51.80;47.50;;;;;;;17.05;100.00;101136.00;5018441;28;20053;-89
2021/06/08 05:17:01;;;;;;;50.83;46.83;;;;;;;17.03;100.00;101130.06;5027842;28;20046;-88
2021/06/08 05:19:29;;;;;;;48.33;44.53;;;;;;;17.26;100.00;101133.72;5027907;28;20104;-86
2021/06/08 05:21:57;;;;;;;47.20;43.33;;;;;;;17.43;100.00;101144.50;5030832;28;20054;-89
2021/06/08 05:24:24;;;;;;;49.67;45.75;;;;;;;17.47;100.00;101135.72;5027162;28;20049;-87
2021/06/08 05:26:52;;;;;;;48.30;44.35;;;;;;;17.58;100.00;101132.16;5030328;28;20132;-87
2021/06/08 05:29:19;;;;;;;47.88;44.28;;;;;;;17.62;100.00;101127.94;5021173;28;20483;-87
2021/06/08 05:31:48;;;;;;;49.85;45.75;;;;;;;17.82;100.00;101130.19;5029657;28;20107;-88
2021/06/08 05:34:15;;;;;;;49.15;44.90;;;;;;;17.97;100.00;101123.41;5030638;28;20045;-87
2021/06/08 05:36:42;;;;;;;47.45;43.53;;;;;;;18.00;100.00;101131.81;5024253;28;20100;-88
2021/06/08 05:39:10;;;;;;;45.08;41.30;;;;;;;18.01;100.00;101124.56;5030050;28;20045;-87
2021/06/08 05:41:37;;;;;;;46.08;41.38;;;;;;;18.04;100.00;101124.06;5025636;28;20099;-89
2021/06/08 05:44:05;;;;;;;48.03;43.88;;;;;;;18.19;100.00;101120.78;5014043;28;20064;-87
2021/06/08 05:46:33;;;;;;;48.05;44.10;;;;;;;18.41;100.00;101118.94;5028773;28;20053;-87
2021/06/08 05:49:01;;;;;;;50.20;46.22;;;;;;;18.54;100.00;101115.88;5022768;28;20434;-88
2021/06/08 05:51:30;;;;;;;47.65;43.88;;;;;;;18.50;100.00;101114.78;5025359;28;20054;-87
2021/06/08 05:53:57;;;;;;;49.28;45.17;;;;;;;18.80;100.00;101112.75;5025922;28;20057;-88
2021/06/08 05:56:25;;;;;;;49.58;45.55;;;;;;;18.76;100.00;101120.53;5026995;28;20060;-87
2021/06/08 05:58:54;;;;;;;51.70;47.40;;;;;;;19.09;100.00;101110.66;5020374;28;20099;-87
2021/06/08 06:01:22;;;;;;;47.78;43.72;;;;;;;19.30;100.00;101107.09;5063130;23;20044;-79
2021/06/08 06:03:49;;;;;;;46.60;42.90;;;;;;;19.32;100.00;101112.25;5050895;28;20466;-79
2021/06/08 06:06:17;;;;;;;45.75;42.05;;;;;;;19.31;100.00;101113.31;5053062;28;20048;-78
2021/06/08 06:08:44;;;;;;;42.58;39.05;;;;;;;18.91;100.00;101119.88;5045893;28;20469;-76
2021/06/08 06:11:13;;;;;;;47.78;43.72;;;;;;;19.22;100.00;101112.97;5049394;28;20052;-78
2021/06/08 06:13:47;;;;;;;40.97;37.97;;;;;;;20.19;100.00;101108.38;5051403;28;20055;-79
2021/06/08 06:16:16;;;;;;;47.05;43.15;;;;;;;19.82;100.00;101119.19;5039560;28;20046;-77
2021/06/08 06:18:43;;;;;;;44.88;41.08;;;;;;;19.90;100.00;101116.00;5045759;28;20080;-77
2021/06/08 06:21:10;;;;;;;45.67;42.10;;;;;;;19.97;100.00;101110.38;5048099;28;20041;-77
2021/06/08 06:23:39;;;;;;;44.42;40.92;;;;;;;20.06;100.00;101112.34;5048234;28;20049;-78
2021/06/08 06:26:06;;;;;;;43.35;40.05;;;;;;;19.93;100.00;101107.38;5046845;28;20049;-80
2021/06/08 06:28:32;;;;;;;46.55;43.05;;;;;;;19.93;100.00;101106.59;5048928;28;20458;-77
2021/06/08 06:30:59;;;;;;;45.17;41.50;;;;;;;20.14;100.00;101105.66;5052194;28;20409;-78
2021/06/08 06:33:25;;;;;;;45.25;41.33;;;;;;;20.42;100.00;101111.72;5048185;28;20045;-78
2021/06/08 06:35:56;;;;;;;42.88;39.88;;;;;;;20.34;100.00;101100.38;5052094;28;20041;-76
2021/06/08 06:38:23;;;;;;;42.20;38.95;;;;;;;20.40;100.00;101097.72;5051025;28;20473;-78
2021/06/08 06:40:52;;;;;;;43.50;40.67;;;;;;;20.50;100.00;101101.25;5051749;28;20049;-77
2021/06/08 06:43:23;;;;;;;40.33;37.75;;;;;;;20.47;100.00;101095.59;5040115;28;20056;-77
2021/06/08 06:45:51;;;;;;;38.17;35.67;;;;;;;20.56;100.00;101094.03;5046763;28;20041;-77
2021/06/08 06:48:18;;;;;;;41.85;39.05;;;;;;;20.58;100.00;101089.19;5044111;23;20084;-88
2021/06/08 06:50:46;;;;;;;43.63;40.83;;;;;;;20.52;100.00;101092.94;5025319;28;20046;-87
2021/06/08 06:53:18;;;;;;;40.72;37.97;;;;;;;20.66;100.00;101090.56;5028205;28;20051;-88
2021/06/08 06:55:48;;;;;;;42.05;39.13;;;;;;;20.71;100.00;101086.00;5023041;28;20053;-87
2021/06/08 06:58:19;;;;;;;39.30;36.80;;;;;;;20.80;100.00;101079.00;5031040;28;20041;-88
2021/06/08 07:00:51;;;;;;;38.70;36.15;;;;;;;20.67;100.00;101082.22;5022393;28;20498;-88
2021/06/08 07:03:28;;;;;;;39.15;36.40;;;;;;;20.79;100.00;101082.00;5021981;28;20426;-88
2021/06/08 07:05:57;;;;;;;38.95;36.28;;;;;;;20.96;100.00;101087.94;5021133;28;20068;-88
2021/06/08 07:08:27;;;;;;;38.13;35.58;;;;;;;20.93;100.00;101085.78;5017068;28;20046;-87
2021/06/08 07:10:55;;;;;;;38.45;35.90;;;;;;;21.12;100.00;101085.28;5014076;28;20041;-87
2021/06/08 07:13:23;;;;;;;40.47;38.08;;;;;;;21.15;100.00;101079.34;5021063;28;20437;-88
2021/06/08 07:15:53;;;;;;;37.03;34.40;;;;;;;21.38;100.00;101081.56;5019698;28;20049;-88
2021/06/08 07:18:21;;;;;;;39.63;36.67;;;;;;;21.74;100.00;101073.47;5019733;28;20049;-88
2021/06/08 07:20:50;;;;;;;42.30;39.20;;;;;;;22.23;100.00;101080.16;5027426;28;20076;-87
2021/06/08 07:23:22;;;;;;;37.80;35.33;;;;;;;21.81;100.00;101068.59;5014783;28;20046;-87
2021/06/08 07:25:50;;;;;;;40.70;36.78;;;;;;;21.94;100.00;101065.34;5022229;28;20052;-88
2021/06/08 07:28:20;;;;;;;40.17;37.40;;;;;;;22.30;100.00;101067.97;5018822;28;20061;-88
2021/06/08 07:30:52;;;;;;;40.58;37.55;;;;;;;22.54;100.00;101061.91;5016356;28;20061;-88
2021/06/08 07:33:26;;;;;;;41.08;38.17;;;;;;;22.47;100.00;101064.13;5022465;28;20049;-88
2021/06/08 07:36:04;;;;;;;39.60;36.88;;;;;;;22.35;100.00;101062.53;5025689;28;20053;-88
2021/06/08 07:38:37;;;;;;;38.83;35.67;;;;;;;22.67;100.00;101052.41;5018679;28;20046;-87
2021/06/08 07:41:10;;;;;;;39.53;36.65;;;;;;;22.62;100.00;101051.31;5020248;28;20499;-87
2021/06/08 07:43:42;;;;;;;42.28;38.95;;;;;;;23.04;100.00;101052.75;5023176;28;20056;-88
2021/06/08 07:46:17;;;;;;;39.33;36.65;;;;;;;23.07;100.00;101052.19;5015180;28;20095;-87
2021/06/08 07:48:48;;;;;;;33.80;31.45;;;;;;;23.19;100.00;101048.31;5014256;28;20050;-87
2021/06/08 07:51:17;;;;;;;40.05;37.08;;;;;;;23.42;100.00;101052.19;5020728;28;20046;-87
2021/06/08 07:53:46;;;;;;;39.50;36.70;;;;;;;23.59;100.00;101062.63;5020279;28;20054;-88
2021/06/08 07:56:15;;;;;;;33.88;31.48;;;;;;;23.19;100.00;101056.44;5019845;28;20131;-87
2021/06/08 07:58:44;;;;;;;35.60;33.10;;;;;;;23.85;100.00;101068.66;5012691;28;20057;-88
2021/06/08 08:01:20;;;;;;;35.33;32.95;;;;;;;23.99;100.00;101058.72;5019178;28;20064;-88
2021/06/08 08:03:59;;;;;;;33.38;30.98;;;;;;;23.32;100.00;101062.00;5030725;28;20419;-88
2021/06/08 08:26:04;;;;;;;35.15;32.95;;;;;;;24.86;100.00;101061.22;5080284;23;20044;-79
2021/06/08 08:28:31;;;;;;;37.78;35.67;;;;;;;24.92;100.00;101061.94;5053870;28;20106;-78
2021/06/08 08:31:00;;;;;;;31.63;29.73;;;;;;;24.66;100.00;101050.63;5050385;28;20041;-77
2021/06/08 08:33:28;;;;;;;36.20;34.13;;;;;;;24.09;100.00;101060.53;5051564;28;20048;-78
2021/06/08 08:35:56;;;;;;;35.50;33.50;;;;;;;24.95;100.00;101052.41;5051490;28;20052;-78
2021/06/08 08:38:23;;;;;;;34.35;32.28;;;;;;;25.04;100.00;101056.88;5047880;28;20045;-78
2021/06/08 08:40:50;;;;;;;33.60;31.50;;;;;;;25.13;100.00;101048.91;5050607;28;20052;-78
2021/06/08 08:43:18;;;;;;;31.15;29.33;;;;;;;25.11;100.00;101048.34;5051016;28;20124;-77
2021/06/08 08:45:44;;;;;;;31.88;29.88;;;;;;;25.02;100.00;101050.13;5052156;28;20052;-76
2021/06/08 08:48:11;;;;;;;34.38;32.28;;;;;;;24.61;100.00;101050.72;5055090;28;20064;-77
2021/06/08 08:50:38;;;;;;;34.58;32.67;;;;;;;24.55;100.00;101051.88;5054168;28;20060;-77
2021/06/08 08:53:05;;;;;;;33.47;31.17;;;;;;;25.33;100.00;101045.06;5053719;28;20049;-78
2021/06/08 08:55:34;;;;;;;32.17;30.17;;;;;;;25.45;100.00;101050.03;5055900;28;20140;-76
2021/06/08 08:58:06;;;;;;;32.20;30.20;;;;;;;25.15;100.00;101043.97;5052874;28;20052;-78
2021/06/08 09:00:34;;;;;;;32.92;30.83;;;;;;;24.66;100.00;101042.47;5051272;28;20517;-78
2021/06/08 09:03:03;;;;;;;35.20;33.30;;;;;;;24.66;100.00;101039.75;5054654;28;20053;-78
2021/06/08 09:05:35;;;;;;;33.20;30.85;;;;;;;24.56;100.00;101038.00;5053405;28;20543;-77
2021/06/08 09:08:01;;;;;;;32.47;30.27;;;;;;;25.47;100.00;101029.56;5052819;28;20122;-78
2021/06/08 09:10:28;;;;;;;32.50;30.38;;;;;;;24.75;100.00;101043.47;5053736;28;20055;-78
2021/06/08 09:12:54;;;;;;;32.92;31.02;;;;;;;25.03;100.00;101035.44;5056437;28;20453;-78
2021/06/08 09:15:20;;;;;;;33.90;31.83;;;;;;;25.50;100.00;101033.59;5049281;28;20053;-79
2021/06/08 09:17:48;;;;;;;34.90;32.85;;;;;;;25.88;100.00;101028.88;5048663;28;20118;-78
2021/06/08 09:20:15;;;;;;;32.65;30.75;;;;;;;25.25;100.00;101026.69;5049079;28;20049;-78
2021/06/08 09:22:52;;;;;;;33.72;31.55;;;;;;;25.24;100.00;101028.63;5045893;28;20053;-76
2021/06/08 09:25:47;;;;;;;34.35;32.25;;;;;;;26.16;100.00;101024.22;5046113;28;20045;-78
2021/06/08 09:28:24;;;;;;;33.45;31.40;;;;;;;26.03;100.00;101023.13;5051096;28;20105;-78
2021/06/08 09:30:55;;;;;;;33.40;31.02;;;;;;;25.78;100.00;101020.84;5045133;28;20069;-77
2021/06/08 09:33:24;;;;;;;34.33;32.03;;;;;;;24.53;100.00;101019.56;5040781;28;20135;-78
2021/06/08 09:35:53;;;;;;;35.92;33.22;;;;;;;24.12;100.00;101014.66;5045370;28;20061;-78
2021/06/08 09:38:20;;;;;;;35.47;33.20;;;;;;;25.28;100.00;101010.59;5047472;28;20393;-78
2021/06/08 09:40:46;;;;;;;35.10;32.80;;;;;;;25.48;100.00;101011.38;5052085;28;20052;-78
2021/06/08 09:43:14;;;;;;;32.42;30.17;;;;;;;25.75;100.00;101003.25;5053806;28;20053;-77
2021/06/08 09:45:42;;;;;;;29.77;27.52;;;;;;;25.48;100.00;101004.00;5051147;28;20062;-78
2021/06/08 09:48:09;;;;;;;32.55;30.40;;;;;;;25.76;100.00;101001.34;5051480;23;20053;-89
2021/06/08 09:50:39;;;;;;;31.33;29.33;;;;;;;25.47;100.00;101001.56;5023076;28;20045;-89
2021/06/08 09:53:25;;;;;;;37.28;35.08;;;;;;;24.39;100.00;101008.63;5014293;28;20053;-90
2021/06/08 09:55:57;;;;;;;33.03;30.85;;;;;;;23.96;100.00;101002.34;5012535;28;20077;-89
2021/06/08 09:58:27;;;;;;;33.43;31.13;;;;;;;25.54;100.00;101002.00;5022965;28;20076;-90
2021/06/08 10:01:08;;;;;;;31.38;29.23;;;;;;;26.03;100.00;101000.56;5019137;28;20487;-90
2021/06/08 10:03:36;;;;;;;32.63;30.42;;;;;;;26.60;100.00;101000.22;5011951;28;20054;-90
2021/06/08 10:06:08;;;;;;;33.85;31.70;;;;;;;26.10;100.00;101000.94;5016544;28;20515;-89
2021/06/08 10:08:38;;;;;;;33.75;31.55;;;;;;;26.29;100.00;101000.81;5018009;28;20057;-90
2021/06/08 10:11:14;;;;;;;33.63;30.98;;;;;;;26.43;100.00;100992.66;5006529;28;20090;-90
2021/06/08 10:13:43;;;;;;;32.70;30.70;;;;;;;26.71;100.00;100986.03;5019690;28;20057;-90
2021/06/08 10:16:12;;;;;;;30.27;28.33;;;;;;;25.76;100.00;100987.72;5018202;28;20066;-89
2021/06/08 10:18:43;;;;;;;34.80;32.20;;;;;;;25.67;100.00;100984.09;5013866;28;20061;-90
2021/06/08 10:21:11;;;;;;;35.55;33.28;;;;;;;26.11;100.00;100978.06;5013774;28;20050;-90
2021/06/08 10:23:40;;;;;;;35.47;32.67;;;;;;;26.80;100.00;100966.22;5016019;28;20043;-90
2021/06/08 10:26:10;;;;;;;30.48;28.35;;;;;;;25.76;100.00;100971.41;5014621;28;20133;-90
2021/06/08 10:28:36;;;;;;;31.75;29.35;;;;;;;26.40;100.00;100974.19;5020349;28;20053;-90
2021/06/08 10:31:05;;;;;;;33.22;31.02;;;;;;;25.74;100.00;100963.53;5017326;28;20065;-89
2021/06/08 10:33:32;;;;;;;34.65;32.38;;;;;;;25.63;100.00;100964.03;5016588;28;20061;-90
2021/06/08 10:35:59;;;;;;;33.78;31.67;;;;;;;26.21;100.00;100968.91;5008845;28;20107;-90
2021/06/08 10:38:28;;;;;;;31.45;29.55;;;;;;;25.97;100.00;100959.03;5019509;28;20038;-90
2021/06/08 10:40:57;;;;;;;33.65;31.35;;;;;;;26.09;100.00;100965.88;5021210;28;20077;-90
2021/06/08 10:43:26;;;;;;;32.88;30.98;;;;;;;25.99;100.00;100954.09;5020013;28;20042;-89
2021/06/08 10:45:56;;;;;;;33.80;31.90;;;;;;;25.34;100.00;100944.16;5007567;28;20058;-90
2021/06/08 10:48:28;;;;;;;35.42;33.15;;;;;;;25.69;100.00;100933.75;5016974;28;20296;-90
2021/06/08 10:51:09;;;;;;;35.50;33.50;;;;;;;26.22;100.00;100930.47;5021649;28;20463;-91
2021/06/08 10:53:40;;;;;;;36.15;34.15;;;;;;;25.91;100.00;100932.25;5021443;28;20049;-89
2021/06/08 10:56:21;;;;;;;33.75;31.40;;;;;;;26.43;100.00;100927.28;5021526;28;20400;-90
2021/06/08 10:58:50;;;;;;;32.35;30.35;;;;;;;25.69;100.00;100916.59;5016033;28;20046;-90
2021/06/08 11:01:47;;;;;;;29.33;27.63;;;;;;;27.01;100.00;100912.03;5008740;28;20115;-90
2021/06/08 11:04:23;;;;;;;28.40;26.63;;;;;;;26.83;100.00;100903.75;5003555;28;20057;-90
2021/06/08 11:06:58;;;;;;;27.80;26.13;;;;;;;26.04;100.00;100902.28;5017224;28;20057;-90
2021/06/08 11:09:35;;;;;;;28.30;26.70;;;;;;;26.22;100.00;100905.97;5019765;28;20057;-90
2021/06/08 11:12:04;;;;;;;30.85;28.98;;;;;;;25.91;100.00;100894.97;5012431;28;20042;-90
2021/06/08 11:14:55;;;;;;;29.83;27.70;;;;;;;26.80;100.00;100877.13;5013341;28;20419;-90
2021/06/08 11:17:40;;;;;;;29.30;27.65;;;;;;;26.81;100.00;100891.53;5018215;28;20049;-90
2021/06/08 11:20:17;;;;;;;28.10;26.25;;;;;;;27.34;100.00;100877.09;5020795;28;20490;-90
2021/06/08 11:23:02;;;;;;;27.13;25.52;;;;;;;27.08;100.00;100876.94;5014991;28;20053;-90
2021/06/08 11:25:33;;;;;;;28.92;27.23;;;;;;;27.24;100.00;100885.56;5020660;28;20045;-90
2021/06/08 11:28:04;;;;;;;28.85;26.88;;;;;;;28.47;100.00;100875.44;5019592;28;20057;-90
2021/06/08 11:30:34;;;;;;;28.55;26.63;;;;;;;28.16;100.00;100870.09;5015136;28;20054;-90
2021/06/08 11:33:04;;;;;;;31.08;29.25;;;;;;;27.24;100.00;100863.75;5006308;28;20081;-90
2021/06/08 11:35:34;;;;;;;27.65;25.88;;;;;;;27.23;98.19;100871.13;5005158;28;20109;-90